Aérodrome :
LOGIN :

S'inscrire | Disclaimer

   EN    FR    IT 

 










Légende :    VFR   VFR Marginal   IFR   IFR Intensif   IFR Très Intensif
Visi : 
Plafond : 
>= 8 km
>= 3000ft
5 à 8 km
1000 à 3000 ft
1500m à 5 km
500 à 1000 ft
800 à 1500m
200 à 500 ft
< 800m
< 200 ft
Symboles :   Orages  Brouillard  Fortes neiges  Fortes précipitations  Vent > 20 kt
SIGMETs :   Divers  Orages  Givrage  Turbulence  Onde Orograph.  Cendres Volcan.







- Altitude de l'aérodrome : 295 ft
- Code IATA : BWE


EDVE - Braunschweig

DERNIER METAR :
  • 171420Z 33013KT CAVOK 25/13 Q1016

METARs EXPIRÉS :
  • 171350Z 31009KT 270V350 CAVOK 27/12 Q1016
  • 171320Z 32008KT 260V020 CAVOK 27/12 Q1016
  • 171250Z 33005KT 270V060 CAVOK 27/12 Q1016
  • 171220Z 29006KT 230V010 CAVOK 27/12 Q1016
  • 171150Z 34005KT 270V070 CAVOK 26/13 Q1016

TAF TAF EDVE
Valide du 17 à 12h jusqu'au 17 à 21h UTC


171100Z 1712/1721 33010KT 9999 SCT045
PROB30
TEMPO 1713/1718 SHRA
BECMG 1717/1719 33004KT
Pas de NOTAMs connus pour ce terrain.



MET'MAP, la Météo Aéronautique d'un coup d'oeil ! - Copyright ORBIFLY Décembre 2007 - Disclaimer

ORBIFLY MET'MAP TEAM :

Programmation & Développement : Alexandra Zaïnal
Conception & Développement : Baudouin d'Aumeries
Co-Programmation & Développement : Marc-Olivier Méhu
Soutien technique & logistique : Manuel Goepfert

Contact : metmap@orbifly.com




SOURCES & CREDITS :

   NOAA